Flight Track Log - Related Links

Times and Time Zones

All times are in EDT time to prevent confusion due to time zone crossing. See the SWA2975 flight status page for this flight to view local times or setup timezone preferences in your user account.

Time Position Orientation Groundspeed Altitude Reporting Facility
EDT Latitude Longitude Course Direction KTS MPH feet Rate Location/Type
Sun 04:01:46 PM 39.8640 -104.6820 258° West 15 17  Level FlightAware ADS-B
Sun 04:02:15 PM 39.8630 -104.6840 237° Southwest 31 36 892 Level FlightAware ADS-B
Sun 04:02:43 PM 39.8620 -104.6840 180° South 34 39 964 Level FlightAware ADS-B
Sun 04:03:10 PM 39.8600 -104.6840 180° South 20 23 1,045 Level FlightAware ADS-B
Sun 04:03:29 PM 39.8580 -104.6840 180° South 20 23 1,137 Level FlightAware ADS-B
Sun 04:03:57 PM 39.8550 -104.6840 180° South 21 24 1,213 Level FlightAware ADS-B
Sun 04:04:16 PM 39.8530 -104.6840 180° South 21 24 1,344 Level FlightAware ADS-B
Sun 04:04:35 PM 39.8520 -104.6850 218° Southwest 15 17 1,450 Level FlightAware ADS-B
Sun 04:04:59 PM 39.8520 -104.6880 270° West 20 23 1,575 Level FlightAware ADS-B
Sun 04:05:45 PM 39.8520 -104.6930 270° West 20 23 1,766 Level FlightAware ADS-B
Sun 04:07:27 PM 39.8540 -104.6970 303° West 55 63 2,305 Level FlightAware ADS-B
Sun 04:08:16 PM 39.8900 -104.6960 North 196 226 5,800 5,910 Climbing FlightAware ADS-B
Sun 04:08:34 PM 39.9060 -104.7000 349° North 201 231 6,600 1,862 Climbing FlightAware ADS-B
Sun 04:08:45 PM 39.9140 -104.7100 316° Northwest 221 254 6,700 889 Climbing FlightAware ADS-B
Sun 04:09:01 PM 39.9180 -104.7320 283° West 240 276 7,000 1,256 Climbing FlightAware ADS-B
Sun 04:09:28 PM 39.9190 -104.7740 272° West 279 321 7,600 1,698 Climbing FlightAware ADS-B
Sun 04:09:54 PM 39.9200 -104.8200 272° West 299 344 8,500 2,455 Climbing FlightAware ADS-B
Sun 04:10:12 PM 39.9200 -104.8520 270° West 296 341 9,400 2,049 Climbing FlightAware ADS-B
Sun 04:10:35 PM 39.9230 -104.8950 275° West 300 345 9,900 769 Climbing FlightAware ADS-B
Sun 04:10:51 PM 39.9260 -104.9220 278° West 300 345 9,900 764 Level FlightAware ADS-B
Sun 04:11:30 PM 39.9330 -104.9680 281° West 302 348 10,600 2,533 Climbing FlightAware ADS-B
Sun 04:12:21 PM 39.9470 -105.0790 279° West 298 343 13,700 3,255 Climbing FlightAware ADS-B
Sun 04:13:04 PM 39.9580 -105.1580 280° West 304 350 15,700 2,714 Climbing FlightAware ADS-B
Sun 04:13:45 PM 39.9680 -105.2300 280° West 308 354 17,500 2,471 Climbing FlightAware ADS-B
Sun 04:14:29 PM 39.9640 -105.3170 267° West 317 365 19,200 2,357 Climbing FlightAware ADS-B
Sun 04:15:09 PM 39.9560 -105.3930 262° West 323 372 20,800 2,357 Climbing FlightAware ADS-B
Sun 04:15:53 PM 39.9480 -105.4780 263° West 328 377 22,500 1,571 Climbing FlightAware ADS-B
Sun 04:16:33 PM 39.9400 -105.5600 263° West 355 409 23,000 385 Climbing FlightAware ADS-B
Sun 04:17:11 PM 39.9300 -105.6440 261° West 390 449 23,000 419 Level FlightAware ADS-B
Sun 04:17:59 PM 39.9180 -105.7580 262° West 411 473 23,600 1,364 Climbing FlightAware ADS-B
Sun 04:18:39 PM 39.9070 -105.8570 262° West 413 475 25,000 1,902 Climbing FlightAware ADS-B
Sun 04:19:21 PM 39.8950 -105.9580 261° West 417 480 26,200 1,705 Climbing FlightAware ADS-B
Sun 04:20:07 PM 39.8830 -106.0740 262° West 420 483 27,500 1,379 Climbing FlightAware ADS-B
Sun 04:20:48 PM 39.8780 -106.1800 267° West 434 499 28,200 1,125 Climbing FlightAware ADS-B
Sun 04:21:27 PM 39.8880 -106.2830 277° West 441 507 29,000 1,333 Climbing FlightAware ADS-B
Sun 04:22:09 PM 39.8990 -106.3940 277° West 442 509 30,000 1,643 Climbing FlightAware ADS-B
Sun 04:22:51 PM 39.9090 -106.5030 277° West 436 502 31,300 1,655 Climbing FlightAware ADS-B
Sun 04:23:36 PM 39.9190 -106.6160 277° West 431 496 32,400 1,620 Climbing FlightAware ADS-B
Sun 04:24:31 PM 39.9200 -106.7560 271° West 417 480 34,000 1,625 Climbing FlightAware ADS-B
Sun 04:25:12 PM 39.9140 -106.8600 266° West 408 470 35,000 1,357 Climbing FlightAware ADS-B
Sun 04:25:55 PM 39.9300 -106.9630 281° West 419 482 35,900 759 Climbing FlightAware ADS-B
Sun 04:26:31 PM 39.9630 -107.0450 298° West 434 499 36,000 79 Climbing FlightAware ADS-B
Sun 04:27:11 PM 40.0020 -107.1410 298° West 442 509 36,000  Level FlightAware ADS-B
Sun 04:27:53 PM 40.0520 -107.2340 305° West 453 521 36,000  Level FlightAware ADS-B
Sun 04:28:37 PM 40.1100 -107.3260 310° West 453 521 36,000  Level FlightAware ADS-B
Sun 04:29:17 PM 40.1600 -107.4060 309° West 452 520 36,000  Level FlightAware ADS-B
Sun 04:30:01 PM 40.2200 -107.5000 310° West 439 505 36,000  Level FlightAware ADS-B
Sun 04:30:41 PM 40.2660 -107.5850 305° West 414 476 36,000  Level FlightAware ADS-B
Sun 04:31:29 PM 40.3060 -107.6930 296° West 414 476 36,000  Level FlightAware ADS-B
Sun 04:32:09 PM 40.3390 -107.7840 295° West 421 484 36,000  Level FlightAware ADS-B
Sun 04:32:55 PM 40.3790 -107.8910 296° West 423 487 36,000  Level FlightAware ADS-B
Sun 04:33:39 PM 40.4160 -107.9920 296° West 426 490 36,000  Level FlightAware ADS-B
Sun 04:34:13 PM 40.4450 -108.0710 296° West 428 493 36,000  Level FlightAware ADS-B
Sun 04:35:01 PM 40.4870 -108.1850 296° West 428 493 36,000  Level FlightAware ADS-B
Sun 04:35:42 PM 40.5210 -108.2790 295° West 427 491 36,000  Level FlightAware ADS-B
Sun 04:36:26 PM 40.5580 -108.3820 295° West 426 490 36,000  Level FlightAware ADS-B
Sun 04:37:06 PM 40.5930 -108.4770 296° West 425 489 36,000  Level FlightAware ADS-B
Sun 04:37:50 PM 40.6300 -108.5790 296° West 424 488 36,000  Level FlightAware ADS-B
Sun 04:38:32 PM 40.6650 -108.6760 295° West 422 486 36,000  Level FlightAware ADS-B
Sun 04:39:12 PM 40.6980 -108.7690 295° West 421 484 36,000  Level FlightAware ADS-B
Sun 04:39:56 PM 40.7350 -108.8720 295° West 423 487 36,000  Level FlightAware ADS-B
Sun 04:40:37 PM 40.7670 -108.9660 294° West 422 486 36,000  Level FlightAware ADS-B
Sun 04:41:14 PM 40.7940 -109.0560 292° West 423 487 36,000  Level FlightAware ADS-B
Sun 04:42:02 PM 40.8290 -109.1720 292° West 423 487 36,000  Level FlightAware ADS-B
Sun 04:42:43 PM 40.8590 -109.2680 292° West 421 484 36,000  Level FlightAware ADS-B
Sun 04:43:26 PM 40.8910 -109.3700 293° West 421 484 36,000  Level FlightAware ADS-B
Sun 04:44:06 PM 40.9220 -109.4660 293° West 419 482 36,000  Level FlightAware ADS-B
Sun 04:44:43 PM 40.9490 -109.5490 293° West 417 480 36,000  Level FlightAware ADS-B
Sun 04:45:20 PM 40.9770 -109.6380 293° West 418 481 36,000  Level FlightAware ADS-B
Sun 04:46:00 PM 41.0070 -109.7320 293° West 416 479 36,000  Level FlightAware ADS-B
Sun 04:46:40 PM 41.0370 -109.8260 293° West 418 481 36,000  Level FlightAware ADS-B
Sun 04:47:21 PM 41.0700 -109.9220 295° West 421 484 36,000  Level FlightAware ADS-B
Sun 04:47:56 PM 41.1000 -110.0040 296° West 421 484 36,000 -456 Level FlightAware ADS-B
Sun 04:48:40 PM 41.1370 -110.1050 296° West 421 484 35,400 -837 Descending FlightAware ADS-B
Sun 04:49:22 PM 41.1710 -110.2000 295° West 427 491 34,800 -583 Descending FlightAware ADS-B
Sun 04:49:52 PM 41.1930 -110.2640 295° West 427 491 34,700 -79 Descending FlightAware ADS-B
Sun 04:50:38 PM 41.2260 -110.3570 295° West 427 491 34,700  Level FlightAware ADS-B
Sun 04:51:16 PM 41.2530 -110.4340 295° West 427 491 34,700  Level FlightAware ADS-B
Sun 04:52:02 PM 41.2850 -110.5270 295° West 427 491 34,700 -1,448 Level FlightAware ADS-B
Sun 04:52:43 PM 41.3390 -110.6790 295° West 427 491 32,600 -2,000 Descending FlightAware ADS-B
Sun 04:53:29 PM 41.3780 -110.7890 295° West 424 488 31,800 -1,023 Descending FlightAware ADS-B
Sun 04:54:11 PM 41.4140 -110.8920 295° West 427 491 31,100 -846 Descending FlightAware ADS-B
Sun 04:54:47 PM 41.4430 -110.9770 294° West 423 487 30,700 -659 Descending FlightAware ADS-B
Sun 04:55:33 PM 41.4800 -111.0850 295° West 421 484 30,200 -818 Descending FlightAware ADS-B
Sun 04:56:15 PM 41.5140 -111.1850 294° West 415 478 29,500 -1,047 Descending FlightAware ADS-B
Sun 04:56:59 PM 41.5490 -111.2860 295° West 412 474 28,700 -1,229 Descending FlightAware ADS-B
Sun 04:57:38 PM 41.5790 -111.3740 295° West 405 466 27,800 -1,725 Descending FlightAware ADS-B
Sun 04:58:19 PM 41.6100 -111.4660 294° West 397 457 26,400 -2,143 Descending FlightAware ADS-B
Sun 04:59:02 PM 41.6430 -111.5630 295° West 392 451 24,800 -2,118 Descending FlightAware ADS-B
Sun 04:59:44 PM 41.6730 -111.6530 294° West 385 443 23,400 -2,071 Descending FlightAware ADS-B
Sun 05:00:26 PM 41.7040 -111.7460 294° West 376 433 21,900 -2,222 Descending FlightAware ADS-B
Sun 05:00:38 PM 41.7070 -111.7710 279° West 366 421 21,400 -3,143 Descending FlightAware ADS-B
Sun 05:01:08 PM 41.6930 -111.8350 254° West 362 417 19,700 -3,417 Descending FlightAware ADS-B
Sun 05:01:50 PM 41.6490 -111.9050 230° Southwest 367 422 17,300 -3,071 Descending FlightAware ADS-B
Sun 05:02:32 PM 41.6030 -111.9790 230° Southwest 357 411 15,400 -1,655 Descending FlightAware ADS-B
Sun 05:03:17 PM 41.5530 -112.0440 224° Southwest 320 368 14,900 -414 Descending FlightAware ADS-B
Sun 05:03:30 PM 41.5330 -112.0500 193° South 312 359 15,000  Climbing FlightAware ADS-B
Sun 05:04:10 PM 41.4790 -112.0570 186° South 304 350 14,900 -825 Descending FlightAware ADS-B
Sun 05:04:50 PM 41.4220 -112.0690 189° South 299 344 13,900 -1,448 Descending FlightAware ADS-B
Sun 05:05:37 PM 41.3580 -112.0650 177° South 295 339 12,800 -1,295 Descending FlightAware ADS-B
Sun 05:06:18 PM 41.3020 -112.0570 174° South 294 338 12,000 -1,059 Descending FlightAware ADS-B
Sun 05:07:02 PM 41.2410 -112.0500 175° South 296 341 11,300 -833 Descending FlightAware ADS-B
Sun 05:07:30 PM 41.2080 -112.0580 190° South 275 316 11,000 -450 Descending FlightAware ADS-B
Sun 05:07:42 PM 41.1970 -112.0720 224° Southwest 259 298 11,000  Level FlightAware ADS-B
Sun 05:07:58 PM 41.1910 -112.0960 252° West 248 285 11,000  Level FlightAware ADS-B
Sun 05:08:30 PM 41.1880 -112.1440 265° West 240 276 11,000  Level FlightAware ADS-B
Sun 05:09:12 PM 41.1850 -112.2070 266° West 242 278 11,000  Level FlightAware ADS-B
Sun 05:09:56 PM 41.1830 -112.2710 268° West 238 274 11,000  Level FlightAware ADS-B
Sun 05:10:08 PM 41.1870 -112.2880 287° West 245 282 11,000  Level FlightAware ADS-B
Sun 05:10:20 PM 41.1970 -112.3020 314° West 252 290 11,000  Level FlightAware ADS-B
Sun 05:10:44 PM 41.2240 -112.3150 340° North 265 305 11,000  Level FlightAware ADS-B
Sun 05:11:38 PM 41.2690 -112.2620 42° Northeast 267 307 11,000  Level FlightAware ADS-B
Sun 05:12:18 PM 41.2550 -112.2010 107° East 264 304 11,000  Level FlightAware ADS-B
Sun 05:13:04 PM 41.2340 -112.1300 111° Southeast 264 304 11,000  Level FlightAware ADS-B
Sun 05:13:48 PM 41.2100 -112.0700 118° Southeast 252 290 11,000  Level FlightAware ADS-B
Sun 05:14:02 PM 41.1950 -112.0630 161° South 245 282 11,000  Level FlightAware ADS-B
Sun 05:14:14 PM 41.1810 -112.0640 183° South 243 280 11,000  Level FlightAware ADS-B
Sun 05:14:30 PM 41.1640 -112.0720 200° South 239 275 11,000  Level FlightAware ADS-B
Sun 05:14:42 PM 41.1540 -112.0830 220° Southwest 238 274 11,000  Level FlightAware ADS-B
Sun 05:14:58 PM 41.1450 -112.1030 239° Southwest 238 274 11,000  Level FlightAware ADS-B
Sun 05:15:10 PM 41.1430 -112.1200 261° West 241 277 11,000  Level FlightAware ADS-B
Sun 05:15:50 PM 41.1560 -112.1770 287° West 249 287 11,000  Level FlightAware ADS-B
Sun 05:16:30 PM 41.1740 -112.2320 294° West 243 280 11,000  Level FlightAware ADS-B
Sun 05:17:10 PM 41.1800 -112.2910 278° West 241 277 11,000  Level FlightAware ADS-B
Sun 05:17:18 PM 41.1780 -112.3020 256° West 236 272 11,000  Level FlightAware ADS-B
Sun 05:17:36 PM 41.1640 -112.3200 224° Southwest 234 269 11,000  Level FlightAware ADS-B
Sun 05:17:44 PM 41.1560 -112.3220 191° South 237 273 11,000  Level FlightAware ADS-B
Sun 05:18:06 PM 41.1320 -112.3110 161° South 248 285 11,000  Level FlightAware ADS-B
Sun 05:18:46 PM 41.0930 -112.2820 151° Southeast 250 288 11,000  Level FlightAware ADS-B
Sun 05:19:28 PM 41.0490 -112.2500 151° Southeast 250 288 11,000  Level FlightAware ADS-B
Sun 05:20:12 PM 41.0110 -112.2050 138° Southeast 257 296 11,000  Level FlightAware ADS-B
Sun 05:20:50 PM 40.9810 -112.1590 131° Southeast 262 302 11,000  Level FlightAware ADS-B
Sun 05:21:18 PM 40.9580 -112.1270 134° Southeast 253 291 11,000  Level FlightAware ADS-B
Sun 05:21:35 PM 40.9410 -112.1190 160° South 248 285 11,000  Level FlightAware ADS-B
Sun 05:22:16 PM 40.8940 -112.1060 168° South 244 281 11,000  Level FlightAware ADS-B
Sun 05:23:00 PM 40.8460 -112.0960 171° South 237 273 11,000  Level FlightAware ADS-B
Sun 05:23:40 PM 40.8020 -112.0870 171° South 244 281 11,000 -300 Level FlightAware ADS-B
Sun 05:24:20 PM 40.7570 -112.0790 172° South 242 278 10,600 -568 Descending FlightAware ADS-B
Sun 05:24:54 PM 40.7200 -112.0760 176° South 235 270 10,300 -563 Descending FlightAware ADS-B
Sun 05:25:24 PM 40.6880 -112.0730 176° South 239 275 10,000 -480 Descending FlightAware ADS-B
Sun 05:26:09 PM 40.6420 -112.0680 175° South 244 281 9,700 -265 Descending FlightAware ADS-B
Sun 05:26:32 PM 40.6200 -112.0660 176° South 244 281 9,700  Level FlightAware ADS-B
Sun 05:26:56 PM 40.5970 -112.0630 174° South 244 281 9,700 -1,500 Level FlightAware ADS-B
Sun 05:27:16 PM 40.5750 -112.0250 127° Southeast 263 303 8,600 -1,920 Descending FlightAware ADS-B
Sun 05:27:46 PM 40.5930 -111.9840 60° Northeast 269 310 8,100 -1,105 Descending FlightAware ADS-B
Sun 05:27:54 PM 40.6010 -111.9790 25° Northeast 265 305 7,900 -1,286 Descending FlightAware ADS-B
Sun 05:28:14 PM 40.6250 -111.9760 North 254 292 7,500 -875 Descending FlightAware ADS-B
Sun 05:28:42 PM 40.6560 -111.9810 353° North 236 272 7,200 -889 Descending FlightAware ADS-B
Sun 05:29:08 PM 40.6850 -111.9850 354° North 226 260 6,700 -840 Descending FlightAware ADS-B
Sun 05:29:32 PM 40.7080 -111.9880 354° North 202 232 6,500 -1,174 Descending FlightAware ADS-B
Sun 05:29:54 PM 40.7290 -111.9910 354° North 197 227 5,800 -2,250 Descending FlightAware ADS-B
Sun 05:30:12 PM 40.7450 -111.9920 357° North 201 231 5,000 -2,667 Descending FlightAware ADS-B
Sun 05:31:44 PM 40.8000 -111.9980 355° North 29 33 -3,261 Descending FlightAware ADS-B
Sun 05:31:50 PM 40.8010 -111.9980 360° North 23 26  Level FlightAware ADS-B
Sun 05:38:00 PM 40.7884 -111.9778 North  Level Estimated

Login

Don't have an account? Register now (free) for customized features, flight alerts, and more!